sensor_id;sensor_type;location;lat;lon;timestamp;P1;durP1;ratioP1;P2;durP2;ratioP2
11797;SDS011;5956;51.428;6.682;2023-11-19T00:01:06;8.73;;;6.90;;
11797;SDS011;5956;51.428;6.682;2023-11-19T00:03:32;8.40;;;6.90;;
11797;SDS011;5956;51.428;6.682;2023-11-19T00:06:01;8.23;;;6.43;;
11797;SDS011;5956;51.428;6.682;2023-11-19T00:08:29;6.90;;;6.20;;
11797;SDS011;5956;51.428;6.682;2023-11-19T00:10:56;6.07;;;5.33;;
11797;SDS011;5956;51.428;6.682;2023-11-19T00:13:22;5.97;;;5.43;;
11797;SDS011;5956;51.428;6.682;2023-11-19T00:15:51;6.17;;;5.40;;
11797;SDS011;5956;51.428;6.682;2023-11-19T00:18:17;5.70;;;5.10;;
11797;SDS011;5956;51.428;6.682;2023-11-19T00:20:44;5.33;;;4.87;;
11797;SDS011;5956;51.428;6.682;2023-11-19T00:23:12;5.37;;;4.87;;
11797;SDS011;5956;51.428;6.682;2023-11-19T00:25:38;6.40;;;4.83;;
11797;SDS011;5956;51.428;6.682;2023-11-19T00:28:05;5.37;;;4.87;;
11797;SDS011;5956;51.428;6.682;2023-11-19T00:30:31;5.53;;;5.03;;
11797;SDS011;5956;51.428;6.682;2023-11-19T00:32:58;5.00;;;4.60;;
11797;SDS011;5956;51.428;6.682;2023-11-19T00:35:24;5.23;;;4.83;;
11797;SDS011;5956;51.428;6.682;2023-11-19T00:37:51;5.47;;;5.07;;
11797;SDS011;5956;51.428;6.682;2023-11-19T00:40:20;4.97;;;4.57;;
11797;SDS011;5956;51.428;6.682;2023-11-19T00:42:48;5.47;;;4.97;;
11797;SDS011;5956;51.428;6.682;2023-11-19T00:45:14;6.87;;;5.47;;
11797;SDS011;5956;51.428;6.682;2023-11-19T00:47:41;5.87;;;5.47;;
11797;SDS011;5956;51.428;6.682;2023-11-19T00:50:08;6.10;;;5.20;;
11797;SDS011;5956;51.428;6.682;2023-11-19T00:52:35;5.70;;;5.20;;
11797;SDS011;5956;51.428;6.682;2023-11-19T00:55:02;6.00;;;5.40;;
11797;SDS011;5956;51.428;6.682;2023-11-19T00:57:30;6.40;;;5.90;;
11797;SDS011;5956;51.428;6.682;2023-11-19T00:59:58;5.87;;;5.43;;
11797;SDS011;5956;51.428;6.682;2023-11-19T01:02:25;6.70;;;6.10;;
11797;SDS011;5956;51.428;6.682;2023-11-19T01:04:51;5.70;;;5.30;;
11797;SDS011;5956;51.428;6.682;2023-11-19T01:07:18;6.93;;;5.73;;
11797;SDS011;5956;51.428;6.682;2023-11-19T01:09:44;6.63;;;6.03;;
11797;SDS011;5956;51.428;6.682;2023-11-19T01:12:11;5.50;;;5.13;;
11797;SDS011;5956;51.428;6.682;2023-11-19T01:14:39;5.80;;;5.30;;
11797;SDS011;5956;51.428;6.682;2023-11-19T01:17:05;5.17;;;4.60;;
11797;SDS011;5956;51.428;6.682;2023-11-19T01:19:32;4.37;;;4.07;;
11797;SDS011;5956;51.428;6.682;2023-11-19T01:21:59;4.67;;;4.27;;
11797;SDS011;5956;51.428;6.682;2023-11-19T01:24:25;4.47;;;3.83;;
11797;SDS011;5956;51.428;6.682;2023-11-19T01:26:54;4.53;;;4.20;;
11797;SDS011;5956;51.428;6.682;2023-11-19T01:29:20;4.03;;;3.73;;
11797;SDS011;5956;51.428;6.682;2023-11-19T01:31:48;4.43;;;4.13;;
11797;SDS011;5956;51.428;6.682;2023-11-19T01:34:16;4.37;;;4.07;;
11797;SDS011;5956;51.428;6.682;2023-11-19T01:36:42;3.67;;;3.43;;
11797;SDS011;5956;51.428;6.682;2023-11-19T01:39:09;5.57;;;4.20;;
11797;SDS011;5956;51.428;6.682;2023-11-19T01:41:35;4.00;;;3.60;;
11797;SDS011;5956;51.428;6.682;2023-11-19T01:44:03;3.77;;;3.40;;
11797;SDS011;5956;51.428;6.682;2023-11-19T01:46:29;4.20;;;3.80;;
11797;SDS011;5956;51.428;6.682;2023-11-19T01:48:59;4.43;;;3.77;;
11797;SDS011;5956;51.428;6.682;2023-11-19T01:51:25;4.00;;;3.70;;
11797;SDS011;5956;51.428;6.682;2023-11-19T01:53:52;6.80;;;3.50;;
11797;SDS011;5956;51.428;6.682;2023-11-19T01:56:19;3.67;;;3.37;;
11797;SDS011;5956;51.428;6.682;2023-11-19T01:58:47;5.10;;;3.93;;
11797;SDS011;5956;51.428;6.682;2023-11-19T02:01:15;4.60;;;4.30;;
11797;SDS011;5956;51.428;6.682;2023-11-19T02:03:41;4.37;;;4.07;;
11797;SDS011;5956;51.428;6.682;2023-11-19T02:06:09;3.97;;;3.67;;
11797;SDS011;5956;51.428;6.682;2023-11-19T02:08:36;4.27;;;3.70;;
11797;SDS011;5956;51.428;6.682;2023-11-19T02:11:04;4.97;;;3.60;;
11797;SDS011;5956;51.428;6.682;2023-11-19T02:13:32;4.90;;;3.33;;
11797;SDS011;5956;51.428;6.682;2023-11-19T02:15:58;5.13;;;3.13;;
11797;SDS011;5956;51.428;6.682;2023-11-19T02:18:27;6.77;;;3.07;;
11797;SDS011;5956;51.428;6.682;2023-11-19T02:20:54;9.03;;;3.40;;
11797;SDS011;5956;51.428;6.682;2023-11-19T02:23:22;6.17;;;2.77;;
11797;SDS011;5956;51.428;6.682;2023-11-19T02:25:53;8.77;;;3.40;;
11797;SDS011;5956;51.428;6.682;2023-11-19T02:28:21;5.53;;;2.73;;
11797;SDS011;5956;51.428;6.682;2023-11-19T02:30:48;7.73;;;3.10;;
11797;SDS011;5956;51.428;6.682;2023-11-19T02:33:15;7.53;;;3.30;;
11797;SDS011;5956;51.428;6.682;2023-11-19T02:35:41;8.10;;;3.10;;
11797;SDS011;5956;51.428;6.682;2023-11-19T02:38:08;8.87;;;2.90;;
11797;SDS011;5956;51.428;6.682;2023-11-19T02:40:34;6.33;;;2.70;;
11797;SDS011;5956;51.428;6.682;2023-11-19T02:43:01;8.00;;;2.90;;
11797;SDS011;5956;51.428;6.682;2023-11-19T02:45:31;5.97;;;3.10;;
11797;SDS011;5956;51.428;6.682;2023-11-19T02:47:58;8.67;;;3.10;;
11797;SDS011;5956;51.428;6.682;2023-11-19T02:50:26;8.60;;;3.33;;
11797;SDS011;5956;51.428;6.682;2023-11-19T02:52:53;8.33;;;3.40;;
11797;SDS011;5956;51.428;6.682;2023-11-19T02:55:21;8.20;;;3.37;;
11797;SDS011;5956;51.428;6.682;2023-11-19T02:57:49;7.50;;;3.23;;
11797;SDS011;5956;51.428;6.682;2023-11-19T03:00:15;10.97;;;3.37;;
11797;SDS011;5956;51.428;6.682;2023-11-19T03:02:43;9.07;;;3.57;;
11797;SDS011;5956;51.428;6.682;2023-11-19T03:05:11;7.33;;;3.70;;
11797;SDS011;5956;51.428;6.682;2023-11-19T03:07:39;9.03;;;3.60;;
11797;SDS011;5956;51.428;6.682;2023-11-19T03:10:07;5.83;;;3.27;;
11797;SDS011;5956;51.428;6.682;2023-11-19T03:12:37;6.80;;;3.40;;
11797;SDS011;5956;51.428;6.682;2023-11-19T03:15:04;11.40;;;3.50;;
11797;SDS011;5956;51.428;6.682;2023-11-19T03:17:31;10.07;;;3.33;;
11797;SDS011;5956;51.428;6.682;2023-11-19T03:19:59;11.10;;;3.53;;
11797;SDS011;5956;51.428;6.682;2023-11-19T03:22:26;12.20;;;3.87;;
11797;SDS011;5956;51.428;6.682;2023-11-19T03:24:52;12.30;;;3.67;;
11797;SDS011;5956;51.428;6.682;2023-11-19T03:27:19;13.50;;;4.13;;
11797;SDS011;5956;51.428;6.682;2023-11-19T03:29:45;10.87;;;3.47;;
11797;SDS011;5956;51.428;6.682;2023-11-19T03:32:12;13.17;;;3.90;;
11797;SDS011;5956;51.428;6.682;2023-11-19T03:34:38;12.30;;;4.20;;
11797;SDS011;5956;51.428;6.682;2023-11-19T03:37:07;17.10;;;4.37;;
11797;SDS011;5956;51.428;6.682;2023-11-19T03:39:34;13.43;;;3.70;;
11797;SDS011;5956;51.428;6.682;2023-11-19T03:42:00;19.83;;;4.67;;
11797;SDS011;5956;51.428;6.682;2023-11-19T03:44:28;17.57;;;4.13;;
11797;SDS011;5956;51.428;6.682;2023-11-19T03:46:54;17.87;;;4.60;;
11797;SDS011;5956;51.428;6.682;2023-11-19T03:49:21;15.60;;;3.90;;
11797;SDS011;5956;51.428;6.682;2023-11-19T03:51:49;14.83;;;3.90;;
11797;SDS011;5956;51.428;6.682;2023-11-19T03:54:17;15.07;;;3.30;;
11797;SDS011;5956;51.428;6.682;2023-11-19T03:56:43;9.93;;;3.87;;
11797;SDS011;5956;51.428;6.682;2023-11-19T03:59:09;16.83;;;4.50;;
11797;SDS011;5956;51.428;6.682;2023-11-19T04:01:36;16.53;;;4.30;;
11797;SDS011;5956;51.428;6.682;2023-11-19T04:04:03;14.53;;;4.20;;
11797;SDS011;5956;51.428;6.682;2023-11-19T04:06:30;14.90;;;4.20;;
11797;SDS011;5956;51.428;6.682;2023-11-19T04:08:56;15.53;;;4.00;;
11797;SDS011;5956;51.428;6.682;2023-11-19T04:11:24;12.33;;;3.77;;
11797;SDS011;5956;51.428;6.682;2023-11-19T04:13:51;14.30;;;4.80;;
11797;SDS011;5956;51.428;6.682;2023-11-19T04:16:17;12.73;;;4.37;;
11797;SDS011;5956;51.428;6.682;2023-11-19T04:18:44;13.23;;;4.17;;
11797;SDS011;5956;51.428;6.682;2023-11-19T04:21:10;16.63;;;4.20;;
11797;SDS011;5956;51.428;6.682;2023-11-19T04:23:37;16.97;;;3.90;;
11797;SDS011;5956;51.428;6.682;2023-11-19T04:26:03;13.00;;;4.23;;
11797;SDS011;5956;51.428;6.682;2023-11-19T04:28:31;12.87;;;4.33;;
11797;SDS011;5956;51.428;6.682;2023-11-19T04:30:58;19.33;;;4.30;;
11797;SDS011;5956;51.428;6.682;2023-11-19T04:33:24;15.23;;;4.40;;
11797;SDS011;5956;51.428;6.682;2023-11-19T04:35:51;19.67;;;4.77;;
11797;SDS011;5956;51.428;6.682;2023-11-19T04:38:17;23.13;;;8.90;;
11797;SDS011;5956;51.428;6.682;2023-11-19T04:40:44;23.97;;;5.83;;
11797;SDS011;5956;51.428;6.682;2023-11-19T04:43:11;17.50;;;4.53;;
11797;SDS011;5956;51.428;6.682;2023-11-19T04:45:39;16.83;;;4.57;;
11797;SDS011;5956;51.428;6.682;2023-11-19T04:48:06;18.97;;;4.83;;
11797;SDS011;5956;51.428;6.682;2023-11-19T04:50:34;23.90;;;5.40;;
11797;SDS011;5956;51.428;6.682;2023-11-19T04:53:00;21.83;;;4.90;;
11797;SDS011;5956;51.428;6.682;2023-11-19T04:55:28;22.77;;;7.17;;
11797;SDS011;5956;51.428;6.682;2023-11-19T04:57:54;23.20;;;5.90;;
11797;SDS011;5956;51.428;6.682;2023-11-19T05:00:21;20.60;;;5.00;;
11797;SDS011;5956;51.428;6.682;2023-11-19T05:02:49;23.50;;;5.67;;
11797;SDS011;5956;51.428;6.682;2023-11-19T05:05:16;21.53;;;5.70;;
11797;SDS011;5956;51.428;6.682;2023-11-19T05:07:42;16.07;;;4.90;;
11797;SDS011;5956;51.428;6.682;2023-11-19T05:10:09;17.83;;;4.50;;
11797;SDS011;5956;51.428;6.682;2023-11-19T05:12:35;17.53;;;4.90;;
11797;SDS011;5956;51.428;6.682;2023-11-19T05:15:02;12.20;;;4.87;;
11797;SDS011;5956;51.428;6.682;2023-11-19T05:17:28;25.17;;;8.60;;
11797;SDS011;5956;51.428;6.682;2023-11-19T05:19:56;24.70;;;5.63;;
11797;SDS011;5956;51.428;6.682;2023-11-19T05:22:23;20.20;;;5.17;;
11797;SDS011;5956;51.428;6.682;2023-11-19T05:24:49;17.50;;;4.33;;
11797;SDS011;5956;51.428;6.682;2023-11-19T05:27:15;22.77;;;5.77;;
11797;SDS011;5956;51.428;6.682;2023-11-19T05:29:42;21.87;;;5.60;;
11797;SDS011;5956;51.428;6.682;2023-11-19T05:32:09;22.53;;;5.07;;
11797;SDS011;5956;51.428;6.682;2023-11-19T05:34:35;19.87;;;5.47;;
11797;SDS011;5956;51.428;6.682;2023-11-19T05:37:03;17.17;;;5.03;;
11797;SDS011;5956;51.428;6.682;2023-11-19T05:39:30;20.37;;;4.87;;
11797;SDS011;5956;51.428;6.682;2023-11-19T05:41:57;17.77;;;5.40;;
11797;SDS011;5956;51.428;6.682;2023-11-19T05:44:24;25.83;;;6.20;;
11797;SDS011;5956;51.428;6.682;2023-11-19T05:46:50;19.77;;;5.07;;
11797;SDS011;5956;51.428;6.682;2023-11-19T05:49:17;18.83;;;4.73;;
11797;SDS011;5956;51.428;6.682;2023-11-19T05:51:44;20.63;;;5.23;;
11797;SDS011;5956;51.428;6.682;2023-11-19T05:54:13;18.27;;;4.93;;
11797;SDS011;5956;51.428;6.682;2023-11-19T05:56:39;18.50;;;5.10;;
11797;SDS011;5956;51.428;6.682;2023-11-19T05:59:07;21.40;;;5.43;;
11797;SDS011;5956;51.428;6.682;2023-11-19T06:01:40;20.47;;;5.53;;
11797;SDS011;5956;51.428;6.682;2023-11-19T06:04:07;24.70;;;5.67;;
11797;SDS011;5956;51.428;6.682;2023-11-19T06:06:33;15.63;;;4.53;;
11797;SDS011;5956;51.428;6.682;2023-11-19T06:09:00;18.77;;;5.57;;
11797;SDS011;5956;51.428;6.682;2023-11-19T06:11:31;21.87;;;5.40;;
11797;SDS011;5956;51.428;6.682;2023-11-19T06:13:57;19.90;;;5.53;;
11797;SDS011;5956;51.428;6.682;2023-11-19T06:16:24;16.97;;;4.87;;
11797;SDS011;5956;51.428;6.682;2023-11-19T06:18:50;22.70;;;5.77;;
11797;SDS011;5956;51.428;6.682;2023-11-19T06:21:18;16.27;;;5.17;;
11797;SDS011;5956;51.428;6.682;2023-11-19T06:23:45;26.03;;;6.23;;
11797;SDS011;5956;51.428;6.682;2023-11-19T06:26:11;22.03;;;6.17;;
11797;SDS011;5956;51.428;6.682;2023-11-19T06:28:40;17.13;;;4.87;;
11797;SDS011;5956;51.428;6.682;2023-11-19T06:31:07;27.43;;;5.97;;
11797;SDS011;5956;51.428;6.682;2023-11-19T06:33:33;19.23;;;5.53;;
11797;SDS011;5956;51.428;6.682;2023-11-19T06:36:00;17.33;;;5.53;;
11797;SDS011;5956;51.428;6.682;2023-11-19T06:38:26;23.37;;;5.73;;
11797;SDS011;5956;51.428;6.682;2023-11-19T06:40:53;23.03;;;6.07;;
11797;SDS011;5956;51.428;6.682;2023-11-19T06:43:19;25.17;;;6.73;;
11797;SDS011;5956;51.428;6.682;2023-11-19T06:45:48;19.37;;;5.10;;
11797;SDS011;5956;51.428;6.682;2023-11-19T06:48:14;18.73;;;5.10;;
11797;SDS011;5956;51.428;6.682;2023-11-19T06:50:41;23.17;;;6.00;;
11797;SDS011;5956;51.428;6.682;2023-11-19T06:53:07;23.40;;;5.57;;
11797;SDS011;5956;51.428;6.682;2023-11-19T06:55:35;17.90;;;5.57;;
11797;SDS011;5956;51.428;6.682;2023-11-19T06:58:02;23.27;;;5.40;;
11797;SDS011;5956;51.428;6.682;2023-11-19T07:00:28;27.10;;;6.23;;
11797;SDS011;5956;51.428;6.682;2023-11-19T07:02:59;22.20;;;5.53;;
11797;SDS011;5956;51.428;6.682;2023-11-19T07:05:25;20.47;;;5.13;;
11797;SDS011;5956;51.428;6.682;2023-11-19T07:07:52;27.53;;;6.10;;
11797;SDS011;5956;51.428;6.682;2023-11-19T07:10:20;22.23;;;5.60;;
11797;SDS011;5956;51.428;6.682;2023-11-19T07:12:46;26.13;;;6.27;;
11797;SDS011;5956;51.428;6.682;2023-11-19T07:15:15;26.17;;;5.63;;
11797;SDS011;5956;51.428;6.682;2023-11-19T07:17:43;22.03;;;5.60;;
11797;SDS011;5956;51.428;6.682;2023-11-19T07:20:12;22.20;;;5.77;;
11797;SDS011;5956;51.428;6.682;2023-11-19T07:22:42;18.30;;;5.70;;
11797;SDS011;5956;51.428;6.682;2023-11-19T07:25:08;22.63;;;5.03;;
11797;SDS011;5956;51.428;6.682;2023-11-19T07:27:35;17.73;;;5.23;;
11797;SDS011;5956;51.428;6.682;2023-11-19T07:30:02;23.67;;;6.90;;
11797;SDS011;5956;51.428;6.682;2023-11-19T07:32:30;18.90;;;5.33;;
11797;SDS011;5956;51.428;6.682;2023-11-19T07:34:57;21.57;;;5.80;;
11797;SDS011;5956;51.428;6.682;2023-11-19T07:37:25;23.33;;;6.20;;
11797;SDS011;5956;51.428;6.682;2023-11-19T07:39:52;24.87;;;5.93;;
11797;SDS011;5956;51.428;6.682;2023-11-19T07:42:19;18.40;;;4.97;;
11797;SDS011;5956;51.428;6.682;2023-11-19T07:44:46;21.27;;;5.33;;
11797;SDS011;5956;51.428;6.682;2023-11-19T07:47:12;18.70;;;6.17;;
11797;SDS011;5956;51.428;6.682;2023-11-19T07:49:39;23.77;;;5.40;;
11797;SDS011;5956;51.428;6.682;2023-11-19T07:52:06;23.63;;;6.73;;
11797;SDS011;5956;51.428;6.682;2023-11-19T07:54:34;16.87;;;5.10;;
11797;SDS011;5956;51.428;6.682;2023-11-19T07:57:01;23.93;;;5.80;;
11797;SDS011;5956;51.428;6.682;2023-11-19T07:59:28;24.17;;;5.37;;
11797;SDS011;5956;51.428;6.682;2023-11-19T08:01:55;20.53;;;5.27;;
11797;SDS011;5956;51.428;6.682;2023-11-19T08:04:23;22.03;;;5.33;;
11797;SDS011;5956;51.428;6.682;2023-11-19T08:06:53;25.23;;;5.57;;
11797;SDS011;5956;51.428;6.682;2023-11-19T08:09:21;26.20;;;5.40;;
11797;SDS011;5956;51.428;6.682;2023-11-19T08:14:32;22.17;;;5.60;;
11797;SDS011;5956;51.428;6.682;2023-11-19T08:17:00;24.63;;;5.33;;
11797;SDS011;5956;51.428;6.682;2023-11-19T08:19:27;25.07;;;11.47;;
11797;SDS011;5956;51.428;6.682;2023-11-19T08:21:54;26.67;;;7.47;;
11797;SDS011;5956;51.428;6.682;2023-11-19T08:24:23;20.60;;;6.57;;
11797;SDS011;5956;51.428;6.682;2023-11-19T08:26:50;20.87;;;5.70;;
11797;SDS011;5956;51.428;6.682;2023-11-19T08:29:17;24.63;;;5.83;;
11797;SDS011;5956;51.428;6.682;2023-11-19T08:31:46;21.53;;;6.10;;
11797;SDS011;5956;51.428;6.682;2023-11-19T08:34:12;20.30;;;5.43;;
11797;SDS011;5956;51.428;6.682;2023-11-19T08:36:41;22.93;;;6.17;;
11797;SDS011;5956;51.428;6.682;2023-11-19T08:39:08;25.70;;;6.33;;
11797;SDS011;5956;51.428;6.682;2023-11-19T08:41:34;24.47;;;6.07;;
11797;SDS011;5956;51.428;6.682;2023-11-19T08:44:03;25.47;;;6.23;;
11797;SDS011;5956;51.428;6.682;2023-11-19T08:46:29;17.67;;;5.10;;
11797;SDS011;5956;51.428;6.682;2023-11-19T08:48:57;27.77;;;5.87;;
11797;SDS011;5956;51.428;6.682;2023-11-19T08:51:25;26.23;;;6.00;;
11797;SDS011;5956;51.428;6.682;2023-11-19T08:53:53;22.23;;;9.37;;
11797;SDS011;5956;51.428;6.682;2023-11-19T08:56:21;22.70;;;6.87;;
11797;SDS011;5956;51.428;6.682;2023-11-19T08:58:48;22.00;;;6.47;;
11797;SDS011;5956;51.428;6.682;2023-11-19T09:01:18;28.27;;;6.10;;
11797;SDS011;5956;51.428;6.682;2023-11-19T09:03:50;23.13;;;5.60;;
11797;SDS011;5956;51.428;6.682;2023-11-19T09:06:18;19.63;;;5.83;;
11797;SDS011;5956;51.428;6.682;2023-11-19T09:08:45;23.40;;;5.60;;
11797;SDS011;5956;51.428;6.682;2023-11-19T09:11:11;23.27;;;5.97;;
11797;SDS011;5956;51.428;6.682;2023-11-19T09:13:38;15.30;;;4.93;;
11797;SDS011;5956;51.428;6.682;2023-11-19T09:16:04;20.67;;;5.70;;
11797;SDS011;5956;51.428;6.682;2023-11-19T09:18:31;26.40;;;9.10;;
11797;SDS011;5956;51.428;6.682;2023-11-19T09:20:58;25.07;;;6.93;;
11797;SDS011;5956;51.428;6.682;2023-11-19T09:23:26;21.53;;;5.70;;
11797;SDS011;5956;51.428;6.682;2023-11-19T09:25:53;22.33;;;5.47;;
11797;SDS011;5956;51.428;6.682;2023-11-19T09:28:20;17.27;;;5.03;;
11797;SDS011;5956;51.428;6.682;2023-11-19T09:30:46;20.90;;;5.80;;
11797;SDS011;5956;51.428;6.682;2023-11-19T09:33:13;21.73;;;6.10;;
11797;SDS011;5956;51.428;6.682;2023-11-19T09:35:40;21.53;;;5.87;;
11797;SDS011;5956;51.428;6.682;2023-11-19T09:38:06;26.03;;;6.80;;
11797;SDS011;5956;51.428;6.682;2023-11-19T09:40:35;20.77;;;6.00;;
11797;SDS011;5956;51.428;6.682;2023-11-19T09:43:04;19.07;;;6.10;;
11797;SDS011;5956;51.428;6.682;2023-11-19T09:45:31;21.03;;;6.07;;
11797;SDS011;5956;51.428;6.682;2023-11-19T09:47:59;18.70;;;5.60;;
11797;SDS011;5956;51.428;6.682;2023-11-19T09:50:27;19.00;;;5.53;;
11797;SDS011;5956;51.428;6.682;2023-11-19T09:52:54;24.10;;;6.63;;
11797;SDS011;5956;51.428;6.682;2023-11-19T09:55:21;20.17;;;5.60;;
11797;SDS011;5956;51.428;6.682;2023-11-19T09:57:49;21.53;;;5.93;;
11797;SDS011;5956;51.428;6.682;2023-11-19T10:00:18;23.50;;;5.60;;
11797;SDS011;5956;51.428;6.682;2023-11-19T10:02:46;20.43;;;5.90;;
11797;SDS011;5956;51.428;6.682;2023-11-19T10:05:13;18.30;;;5.57;;
11797;SDS011;5956;51.428;6.682;2023-11-19T10:07:40;23.30;;;6.57;;
11797;SDS011;5956;51.428;6.682;2023-11-19T10:10:08;22.70;;;5.67;;
11797;SDS011;5956;51.428;6.682;2023-11-19T10:12:36;27.87;;;6.83;;
11797;SDS011;5956;51.428;6.682;2023-11-19T10:15:05;28.50;;;7.13;;
11797;SDS011;5956;51.428;6.682;2023-11-19T10:17:33;22.83;;;6.37;;
11797;SDS011;5956;51.428;6.682;2023-11-19T10:20:00;25.67;;;6.30;;
11797;SDS011;5956;51.428;6.682;2023-11-19T10:22:27;22.67;;;6.53;;
11797;SDS011;5956;51.428;6.682;2023-11-19T10:24:54;18.73;;;6.00;;
11797;SDS011;5956;51.428;6.682;2023-11-19T10:27:23;26.27;;;6.07;;
11797;SDS011;5956;51.428;6.682;2023-11-19T10:29:50;23.53;;;6.63;;
11797;SDS011;5956;51.428;6.682;2023-11-19T10:32:19;20.87;;;5.70;;
11797;SDS011;5956;51.428;6.682;2023-11-19T10:34:45;20.20;;;5.70;;
11797;SDS011;5956;51.428;6.682;2023-11-19T10:37:21;22.87;;;5.97;;
11797;SDS011;5956;51.428;6.682;2023-11-19T10:39:54;18.60;;;5.50;;
11797;SDS011;5956;51.428;6.682;2023-11-19T10:42:20;25.52;;;5.93;;
11797;SDS011;5956;51.428;6.682;2023-11-19T10:44:47;22.92;;;5.72;;
11797;SDS011;5956;51.428;6.682;2023-11-19T10:47:14;18.33;;;5.90;;
11797;SDS011;5956;51.428;6.682;2023-11-19T10:49:44;20.15;;;6.05;;
11797;SDS011;5956;51.428;6.682;2023-11-19T10:52:11;19.25;;;5.82;;
11797;SDS011;5956;51.428;6.682;2023-11-19T10:54:38;19.20;;;5.65;;
11797;SDS011;5956;51.428;6.682;2023-11-19T10:57:07;15.95;;;5.40;;
11797;SDS011;5956;51.428;6.682;2023-11-19T10:59:35;19.85;;;5.28;;
11797;SDS011;5956;51.428;6.682;2023-11-19T11:02:03;22.38;;;5.85;;
11797;SDS011;5956;51.428;6.682;2023-11-19T11:04:33;18.58;;;5.13;;
11797;SDS011;5956;51.428;6.682;2023-11-19T11:07:08;16.85;;;5.55;;
11797;SDS011;5956;51.428;6.682;2023-11-19T11:09:35;22.45;;;5.95;;
11797;SDS011;5956;51.428;6.682;2023-11-19T11:12:02;16.55;;;5.35;;
11797;SDS011;5956;51.428;6.682;2023-11-19T11:14:30;15.70;;;4.63;;
11797;SDS011;5956;51.428;6.682;2023-11-19T11:16:56;16.85;;;5.47;;
11797;SDS011;5956;51.428;6.682;2023-11-19T11:19:24;19.02;;;8.70;;
11797;SDS011;5956;51.428;6.682;2023-11-19T11:21:51;20.13;;;6.03;;
11797;SDS011;5956;51.428;6.682;2023-11-19T11:24:43;15.98;;;5.40;;
11797;SDS011;5956;51.428;6.682;2023-11-19T11:30:04;18.05;;;5.13;;
11797;SDS011;5956;51.428;6.682;2023-11-19T11:32:37;17.40;;;4.80;;
11797;SDS011;5956;51.428;6.682;2023-11-19T11:35:10;16.08;;;5.43;;
11797;SDS011;5956;51.428;6.682;2023-11-19T11:37:39;17.30;;;4.90;;
11797;SDS011;5956;51.428;6.682;2023-11-19T11:40:15;15.98;;;5.43;;
11797;SDS011;5956;51.428;6.682;2023-11-19T11:42:43;20.65;;;5.70;;
11797;SDS011;5956;51.428;6.682;2023-11-19T11:45:10;13.68;;;5.32;;
11797;SDS011;5956;51.428;6.682;2023-11-19T11:50:28;15.55;;;4.97;;
11797;SDS011;5956;51.428;6.682;2023-11-19T11:55:52;19.85;;;6.47;;
11797;SDS011;5956;51.428;6.682;2023-11-19T11:58:20;18.15;;;5.38;;
11797;SDS011;5956;51.428;6.682;2023-11-19T12:00:47;20.52;;;5.10;;
11797;SDS011;5956;51.428;6.682;2023-11-19T12:03:16;19.65;;;5.50;;
11797;SDS011;5956;51.428;6.682;2023-11-19T12:05:47;17.38;;;4.97;;
11797;SDS011;5956;51.428;6.682;2023-11-19T12:08:14;13.18;;;4.60;;
11797;SDS011;5956;51.428;6.682;2023-11-19T12:10:45;12.60;;;5.03;;
11797;SDS011;5956;51.428;6.682;2023-11-19T12:13:12;16.60;;;5.78;;
11797;SDS011;5956;51.428;6.682;2023-11-19T12:18:21;17.23;;;5.10;;
11797;SDS011;5956;51.428;6.682;2023-11-19T12:20:48;18.55;;;5.20;;
11797;SDS011;5956;51.428;6.682;2023-11-19T12:23:16;14.90;;;5.18;;
11797;SDS011;5956;51.428;6.682;2023-11-19T12:25:44;11.48;;;4.53;;
11797;SDS011;5956;51.428;6.682;2023-11-19T12:28:12;18.92;;;4.70;;
11797;SDS011;5956;51.428;6.682;2023-11-19T12:30:40;15.80;;;4.47;;
11797;SDS011;5956;51.428;6.682;2023-11-19T12:33:07;15.70;;;4.70;;
11797;SDS011;5956;51.428;6.682;2023-11-19T12:35:38;14.73;;;4.82;;
11797;SDS011;5956;51.428;6.682;2023-11-19T12:38:05;13.50;;;4.80;;
11797;SDS011;5956;51.428;6.682;2023-11-19T12:40:32;15.90;;;4.55;;
11797;SDS011;5956;51.428;6.682;2023-11-19T12:43:01;12.77;;;4.43;;
11797;SDS011;5956;51.428;6.682;2023-11-19T12:45:34;19.90;;;4.60;;
11797;SDS011;5956;51.428;6.682;2023-11-19T12:48:07;12.97;;;4.37;;
11797;SDS011;5956;51.428;6.682;2023-11-19T12:50:50;14.47;;;3.87;;
11797;SDS011;5956;51.428;6.682;2023-11-19T12:53:17;14.37;;;4.50;;
11797;SDS011;5956;51.428;6.682;2023-11-19T12:55:43;11.83;;;3.60;;
11797;SDS011;5956;51.428;6.682;2023-11-19T12:58:11;9.77;;;3.57;;
11797;SDS011;5956;51.428;6.682;2023-11-19T13:00:58;9.83;;;4.27;;
11797;SDS011;5956;51.428;6.682;2023-11-19T13:03:29;12.20;;;3.77;;
11797;SDS011;5956;51.428;6.682;2023-11-19T13:06:00;26.00;;;16.47;;
11797;SDS011;5956;51.428;6.682;2023-11-19T13:08:27;14.03;;;4.40;;
11797;SDS011;5956;51.428;6.682;2023-11-19T13:10:54;15.80;;;3.93;;
11797;SDS011;5956;51.428;6.682;2023-11-19T13:13:22;13.83;;;3.77;;
11797;SDS011;5956;51.428;6.682;2023-11-19T13:15:49;10.03;;;4.17;;
11797;SDS011;5956;51.428;6.682;2023-11-19T13:18:16;12.50;;;4.80;;
11797;SDS011;5956;51.428;6.682;2023-11-19T13:20:44;16.10;;;4.60;;
11797;SDS011;5956;51.428;6.682;2023-11-19T13:23:11;17.43;;;4.60;;
11797;SDS011;5956;51.428;6.682;2023-11-19T13:25:37;14.77;;;4.73;;
11797;SDS011;5956;51.428;6.682;2023-11-19T13:28:04;15.83;;;4.77;;
11797;SDS011;5956;51.428;6.682;2023-11-19T13:30:33;13.97;;;4.23;;
11797;SDS011;5956;51.428;6.682;2023-11-19T13:32:59;19.53;;;5.03;;
11797;SDS011;5956;51.428;6.682;2023-11-19T13:35:26;22.80;;;4.70;;
11797;SDS011;5956;51.428;6.682;2023-11-19T13:37:53;14.93;;;4.50;;
11797;SDS011;5956;51.428;6.682;2023-11-19T13:40:20;16.87;;;4.33;;
11797;SDS011;5956;51.428;6.682;2023-11-19T13:42:47;14.23;;;4.57;;
11797;SDS011;5956;51.428;6.682;2023-11-19T13:45:14;16.43;;;4.87;;
11797;SDS011;5956;51.428;6.682;2023-11-19T13:47:45;19.00;;;4.93;;
11797;SDS011;5956;51.428;6.682;2023-11-19T13:50:12;17.73;;;5.20;;
11797;SDS011;5956;51.428;6.682;2023-11-19T13:52:40;17.60;;;4.63;;
11797;SDS011;5956;51.428;6.682;2023-11-19T13:55:08;18.73;;;4.60;;
11797;SDS011;5956;51.428;6.682;2023-11-19T13:57:35;18.33;;;4.97;;
11797;SDS011;5956;51.428;6.682;2023-11-19T14:00:02;17.70;;;5.17;;
11797;SDS011;5956;51.428;6.682;2023-11-19T14:02:31;16.23;;;4.27;;
11797;SDS011;5956;51.428;6.682;2023-11-19T14:04:59;15.20;;;4.57;;
11797;SDS011;5956;51.428;6.682;2023-11-19T14:07:26;13.30;;;4.13;;
11797;SDS011;5956;51.428;6.682;2023-11-19T14:09:53;16.20;;;4.50;;
11797;SDS011;5956;51.428;6.682;2023-11-19T14:12:21;20.17;;;4.93;;
11797;SDS011;5956;51.428;6.682;2023-11-19T14:14:48;18.67;;;5.27;;
11797;SDS011;5956;51.428;6.682;2023-11-19T14:17:15;14.73;;;5.10;;
11797;SDS011;5956;51.428;6.682;2023-11-19T14:19:42;14.00;;;4.97;;
11797;SDS011;5956;51.428;6.682;2023-11-19T14:22:10;16.23;;;4.33;;
11797;SDS011;5956;51.428;6.682;2023-11-19T14:24:37;18.40;;;5.17;;
11797;SDS011;5956;51.428;6.682;2023-11-19T14:27:06;14.93;;;4.10;;
11797;SDS011;5956;51.428;6.682;2023-11-19T14:29:33;18.37;;;4.93;;
11797;SDS011;5956;51.428;6.682;2023-11-19T14:32:00;20.80;;;9.53;;
11797;SDS011;5956;51.428;6.682;2023-11-19T14:34:28;12.47;;;5.33;;
11797;SDS011;5956;51.428;6.682;2023-11-19T14:36:55;15.47;;;4.30;;
11797;SDS011;5956;51.428;6.682;2023-11-19T14:39:23;15.97;;;4.83;;
11797;SDS011;5956;51.428;6.682;2023-11-19T14:41:50;12.40;;;4.10;;
11797;SDS011;5956;51.428;6.682;2023-11-19T14:44:18;12.27;;;4.30;;
11797;SDS011;5956;51.428;6.682;2023-11-19T14:46:46;21.00;;;5.30;;
11797;SDS011;5956;51.428;6.682;2023-11-19T14:49:14;16.43;;;4.83;;
11797;SDS011;5956;51.428;6.682;2023-11-19T14:51:41;17.47;;;4.00;;
11797;SDS011;5956;51.428;6.682;2023-11-19T14:54:07;18.70;;;4.63;;
11797;SDS011;5956;51.428;6.682;2023-11-19T14:56:35;14.03;;;4.87;;
11797;SDS011;5956;51.428;6.682;2023-11-19T14:59:04;13.07;;;4.40;;
11797;SDS011;5956;51.428;6.682;2023-11-19T15:01:30;16.87;;;4.37;;
11797;SDS011;5956;51.428;6.682;2023-11-19T15:03:58;14.60;;;4.33;;
11797;SDS011;5956;51.428;6.682;2023-11-19T15:06:24;11.53;;;3.87;;